createdAt,value
2018-09-13T00:00:04.141Z,95240.97
2018-09-13T00:03:09.454Z,95242.43
2018-09-13T00:06:14.124Z,95245.25
2018-09-13T00:09:19.139Z,95235.83
2018-09-13T00:12:23.701Z,95232.59
2018-09-13T00:15:28.131Z,95223.31
2018-09-13T00:18:33.151Z,95221.76
2018-09-13T00:21:37.582Z,95222.66
2018-09-13T00:24:41.940Z,95223.11
2018-09-13T00:27:46.947Z,95226.34
2018-09-13T00:30:52.298Z,95226.48
2018-09-13T00:33:56.717Z,95221.02
2018-09-13T00:37:00.896Z,95215.72
2018-09-13T00:40:05.562Z,95218.97
2018-09-13T00:43:09.971Z,95218.70
2018-09-13T00:46:14.571Z,95221.91
2018-09-13T00:49:18.935Z,95217.65
2018-09-13T00:52:25.306Z,95213.70
2018-09-13T00:55:29.706Z,95209.68
2018-09-13T00:58:34.824Z,95213.44
2018-09-13T01:01:40.467Z,95208.52
2018-09-13T01:04:45.592Z,95217.19
2018-09-13T01:07:49.996Z,95212.47
2018-09-13T01:10:55.112Z,95214.81
2018-09-13T01:14:00.529Z,95218.05
2018-09-13T01:17:04.998Z,95216.09
2018-09-13T01:20:09.373Z,95223.28
2018-09-13T01:23:15.824Z,95219.08
2018-09-13T01:26:21.317Z,95220.02
2018-09-13T01:29:25.834Z,95212.15
2018-09-13T01:32:30.620Z,95202.86
2018-09-13T01:35:36.662Z,95195.86
2018-09-13T01:38:41.102Z,95191.36
2018-09-13T01:41:48.345Z,95192.72
2018-09-13T01:44:53.402Z,95188.25
2018-09-13T01:47:57.894Z,95195.50
2018-09-13T01:51:02.370Z,95193.17
2018-09-13T01:54:07.333Z,95196.69
2018-09-13T01:57:11.786Z,95188.52
2018-09-13T02:00:16.229Z,95188.09
2018-09-13T02:03:21.430Z,95187.87
2018-09-13T02:06:25.845Z,95181.09
2018-09-13T02:09:30.275Z,95175.91
2018-09-13T02:12:34.691Z,95172.67
2018-09-13T02:15:40.291Z,95166.83
2018-09-13T02:18:44.677Z,95164.52
2018-09-13T02:21:49.173Z,95156.41
2018-09-13T02:24:54.670Z,95156.56
2018-09-13T02:27:59.114Z,95158.31
2018-09-13T02:31:03.603Z,95162.95
2018-09-13T02:34:07.988Z,95161.00
2018-09-13T02:37:12.413Z,95157.70
2018-09-13T02:40:16.561Z,95165.45
2018-09-13T02:43:21.101Z,95174.38
2018-09-13T02:46:25.549Z,95178.88
2018-09-13T02:49:29.955Z,95194.64
2018-09-13T02:52:34.341Z,95196.23
2018-09-13T02:55:39.298Z,95193.24
2018-09-13T02:58:43.717Z,95179.84
2018-09-13T03:01:48.145Z,95180.38
2018-09-13T03:04:54.066Z,95186.88
2018-09-13T03:07:58.521Z,95195.44
2018-09-13T03:11:03.090Z,95201.28
2018-09-13T03:14:08.048Z,95203.61
2018-09-13T03:17:12.695Z,95207.01
2018-09-13T03:20:17.745Z,95217.27
2018-09-13T03:23:22.858Z,95236.73
2018-09-13T03:26:27.246Z,95236.13
2018-09-13T03:29:31.747Z,95244.03
2018-09-13T03:32:36.688Z,95246.83
2018-09-13T03:35:41.103Z,95245.84
2018-09-13T03:38:46.064Z,95244.57
2018-09-13T03:41:50.536Z,95241.12
2018-09-13T03:44:55.369Z,95242.80
2018-09-13T03:47:59.809Z,95242.95
2018-09-13T03:51:05.166Z,95243.80
2018-09-13T03:54:09.615Z,95243.80
2018-09-13T03:57:14.064Z,95247.52
2018-09-13T04:00:18.817Z,95243.42
2018-09-13T04:03:24.215Z,95251.44
2018-09-13T04:06:29.588Z,95253.30
2018-09-13T04:09:34.820Z,95253.16
2018-09-13T04:12:39.247Z,95253.72
2018-09-13T04:15:44.522Z,95251.60
2018-09-13T04:18:49.894Z,95256.58
2018-09-13T04:21:54.237Z,95260.68
2018-09-13T04:24:58.340Z,95260.34
2018-09-13T04:28:03.282Z,95256.95
2018-09-13T04:31:07.678Z,95258.25
2018-09-13T04:34:12.951Z,95249.79
2018-09-13T04:37:18.490Z,95248.92
2018-09-13T04:40:22.991Z,95256.05
2018-09-13T04:43:29.531Z,95253.98
2018-09-13T04:46:33.957Z,95251.34
2018-09-13T04:49:38.474Z,95252.62
2018-09-13T04:52:43.677Z,95262.05
2018-09-13T04:55:50.094Z,95249.23
2018-09-13T04:58:54.609Z,95250.27
2018-09-13T05:01:58.994Z,95248.17
2018-09-13T05:05:03.517Z,95244.03
2018-09-13T05:08:07.889Z,95241.30
2018-09-13T05:11:12.831Z,95239.66
2018-09-13T05:14:18.171Z,95242.64
2018-09-13T05:17:22.593Z,95242.30
2018-09-13T05:20:27.861Z,95236.44
2018-09-13T05:23:32.448Z,95236.48
2018-09-13T05:26:37.981Z,95232.25
2018-09-13T05:29:42.402Z,95234.69
2018-09-13T05:32:46.874Z,95228.77
2018-09-13T05:35:51.615Z,95230.36
2018-09-13T05:38:56.166Z,95225.31
2018-09-13T05:42:00.590Z,95223.58
2018-09-13T05:45:05.262Z,95230.04
2018-09-13T05:48:09.738Z,95222.58
2018-09-13T05:51:14.315Z,95227.27
2018-09-13T05:54:19.422Z,95223.30
2018-09-13T05:57:24.922Z,95226.14
2018-09-13T06:00:29.502Z,95226.35
2018-09-13T06:03:36.321Z,95226.35
2018-09-13T06:06:41.513Z,95221.17
2018-09-13T06:09:46.817Z,95223.04
2018-09-13T06:12:52.391Z,95224.25
2018-09-13T06:15:58.541Z,95223.59
2018-09-13T06:19:03.333Z,95220.36
2018-09-13T06:22:08.146Z,95215.56
2018-09-13T06:25:12.996Z,95214.09
2018-09-13T06:28:17.965Z,95217.02
2018-09-13T06:31:22.513Z,95214.75
2018-09-13T06:34:33.273Z,95218.81
2018-09-13T06:37:37.710Z,95218.94
2018-09-13T06:40:43.174Z,95220.05
2018-09-13T06:43:48.870Z,95220.16
2018-09-13T06:46:53.829Z,95228.18
2018-09-13T06:49:59.529Z,95225.09
2018-09-13T06:53:04.215Z,95218.56
2018-09-13T06:56:08.704Z,95223.63
2018-09-13T06:59:13.688Z,95227.28
2018-09-13T07:02:18.226Z,95234.03
2018-09-13T07:05:22.695Z,95235.58
2018-09-13T07:08:27.829Z,95234.73
2018-09-13T07:11:32.358Z,95237.17
2018-09-13T07:14:37.628Z,95246.30
2018-09-13T07:17:42.085Z,95242.17
2018-09-13T07:20:46.549Z,95248.09
2018-09-13T07:23:52.207Z,95246.35
2018-09-13T07:26:57.662Z,95255.93
2018-09-13T07:30:02.571Z,95257.83
2018-09-13T07:33:07.475Z,95260.44
2018-09-13T07:36:11.978Z,95258.91
2018-09-13T07:39:18.030Z,95264.70
2018-09-13T07:42:22.465Z,95269.20
2018-09-13T07:45:26.901Z,95274.84
2018-09-13T07:48:31.667Z,95278.67
2018-09-13T07:51:36.912Z,95271.20
2018-09-13T07:54:41.891Z,95278.84
2018-09-13T07:57:48.286Z,95276.69
2018-09-13T08:00:54.377Z,95277.50
2018-09-13T08:03:59.258Z,95286.14
2018-09-13T08:07:03.417Z,95286.35
2018-09-13T08:10:08.299Z,95290.87
2018-09-13T08:13:13.423Z,95288.00
2018-09-13T08:16:18.414Z,95288.53
2018-09-13T08:19:22.929Z,95291.04
2018-09-13T08:22:27.327Z,95291.73
2018-09-13T08:25:32.480Z,95298.16
2018-09-13T08:28:37.297Z,95308.19
2018-09-13T08:31:41.773Z,95299.55
2018-09-13T08:34:47.710Z,95298.77
2018-09-13T08:37:52.308Z,95296.22
2018-09-13T08:40:57.064Z,95295.86
2018-09-13T08:44:01.466Z,95290.02
2018-09-13T08:47:05.858Z,95294.41
2018-09-13T08:50:11.469Z,95289.61
2018-09-13T08:53:16.566Z,95293.14
2018-09-13T08:56:21.057Z,95291.75
2018-09-13T08:59:26.243Z,95288.73
2018-09-13T09:02:30.723Z,95286.65
2018-09-13T09:05:36.816Z,95287.22
2018-09-13T09:08:45.135Z,95281.58
2018-09-13T09:11:51.840Z,95278.22
2018-09-13T09:14:58.627Z,95278.91
2018-09-13T09:18:03.117Z,95273.34
2018-09-13T09:21:08.643Z,95271.15
2018-09-13T09:24:14.514Z,95268.90
2018-09-13T09:27:19.203Z,95267.00
2018-09-13T09:30:25.181Z,95267.02
2018-09-13T09:33:32.758Z,95267.02
2018-09-13T09:36:37.744Z,95262.56
2018-09-13T09:39:42.736Z,95256.42
2018-09-13T09:42:47.312Z,95255.76
2018-09-13T09:45:52.045Z,95255.48
2018-09-13T09:48:56.983Z,95252.70
2018-09-13T09:52:01.927Z,95259.91
2018-09-13T09:55:07.162Z,95250.55
2018-09-13T09:58:11.971Z,95251.89
2018-09-13T10:01:33.217Z,95254.25
2018-09-13T10:04:37.743Z,95261.60
2018-09-13T10:07:42.226Z,95256.50
2018-09-13T10:10:49.140Z,95253.62
2018-09-13T10:13:54.327Z,95248.30
2018-09-13T10:17:04.255Z,95251.95
2018-09-13T10:20:14.499Z,95255.86
2018-09-13T10:23:24.297Z,95249.85
2018-09-13T10:26:34.520Z,95250.36
2018-09-13T10:29:44.013Z,95246.47
2018-09-13T10:32:54.798Z,95253.37
2018-09-13T10:36:06.863Z,95249.30
2018-09-13T10:39:16.581Z,95252.43
2018-09-13T10:43:32.043Z,95251.17
2018-09-13T10:46:37.051Z,95235.06
2018-09-13T10:49:46.664Z,95236.77
2018-09-13T10:52:57.734Z,95238.34
2018-09-13T10:56:02.035Z,95234.44
2018-09-13T10:59:07.603Z,95233.19
2018-09-13T11:02:12.415Z,95236.49
2018-09-13T11:05:18.172Z,95234.06
2018-09-13T11:08:22.707Z,95227.31
2018-09-13T11:11:28.238Z,95223.30
2018-09-13T11:14:41.883Z,95219.34
2018-09-13T11:17:46.559Z,95215.47
2018-09-13T11:20:53.562Z,95212.59
2018-09-13T11:23:58.215Z,95207.75
2018-09-13T11:27:03.826Z,95206.80
2018-09-13T11:30:08.403Z,95200.13
2018-09-13T11:33:15.677Z,95191.20
2018-09-13T11:36:22.327Z,95192.67
2018-09-13T11:39:26.749Z,95186.58
2018-09-13T11:42:31.989Z,95181.55
2018-09-13T11:45:38.031Z,95175.58
2018-09-13T11:48:42.629Z,95170.55
2018-09-13T11:51:48.227Z,95173.22
2018-09-13T11:54:53.398Z,95172.77
2018-09-13T11:57:57.845Z,95174.46
2018-09-13T12:01:02.436Z,95169.23
2018-09-13T12:04:06.937Z,95163.88
2018-09-13T12:07:11.433Z,95162.42
2018-09-13T12:10:16.642Z,95169.74
2018-09-13T12:13:23.603Z,95162.09
2018-09-13T12:16:28.267Z,95154.33
2018-09-13T12:19:32.958Z,95149.99
2018-09-13T12:22:37.977Z,95148.91
2018-09-13T12:25:43.696Z,95141.29
2018-09-13T12:28:49.398Z,95143.88
2018-09-13T12:31:54.440Z,95143.01
2018-09-13T12:34:59.182Z,95138.26
2018-09-13T12:38:04.267Z,95132.29
2018-09-13T12:41:10.071Z,95126.18
2018-09-13T12:44:14.609Z,95128.20
2018-09-13T12:47:21.170Z,95128.03
2018-09-13T12:50:25.693Z,95124.72
2018-09-13T12:53:30.951Z,95122.16
2018-09-13T12:56:35.733Z,95118.85
2018-09-13T12:59:40.167Z,95121.16
2018-09-13T13:02:44.605Z,95124.41
2018-09-13T13:05:50.803Z,95125.45
2018-09-13T13:08:55.725Z,95116.83
2018-09-13T13:12:00.534Z,95109.90
2018-09-13T13:15:07.485Z,95104.73
2018-09-13T13:18:15.239Z,95101.98
2018-09-13T13:21:19.930Z,95097.85
2018-09-13T13:24:25.420Z,95087.45
2018-09-13T13:27:30.688Z,95089.33
2018-09-13T13:30:35.802Z,95082.12
2018-09-13T13:33:41.785Z,95082.28
2018-09-13T13:36:46.789Z,95070.49
2018-09-13T13:39:51.384Z,95068.72
2018-09-13T13:42:56.024Z,95067.28
2018-09-13T13:46:00.462Z,95057.59
2018-09-13T13:49:05.154Z,95057.05
2018-09-13T13:52:10.514Z,95054.27
2018-09-13T13:55:14.989Z,95054.50
2018-09-13T13:58:19.466Z,95052.84
2018-09-13T14:01:24.649Z,95047.37
2018-09-13T14:04:29.734Z,95046.52
2018-09-13T14:07:34.653Z,95039.31
2018-09-13T14:10:40.185Z,95042.36
2018-09-13T14:17:24.656Z,95028.23
2018-09-13T14:20:30.299Z,95035.22
2018-09-13T14:23:35.870Z,95030.19
2018-09-13T14:26:41.599Z,95026.48
2018-09-13T14:29:47.734Z,95030.61
2018-09-13T14:32:52.642Z,95018.35
2018-09-13T14:35:57.720Z,95016.55
2018-09-13T14:39:02.767Z,95011.58
2018-09-13T14:42:08.098Z,95015.83
2018-09-13T14:45:13.361Z,95015.01
2018-09-13T14:48:18.308Z,95014.83
2018-09-13T14:51:23.395Z,95028.77
2018-09-13T14:54:28.048Z,95025.32
2018-09-13T14:57:32.451Z,95033.91
2018-09-13T15:00:37.833Z,95042.08
2018-09-13T15:03:49.207Z,95038.91
2018-09-13T15:06:54.307Z,95043.88
2018-09-13T15:09:59.313Z,95043.64
2018-09-13T15:13:04.412Z,95048.99
2018-09-13T15:16:09.788Z,95053.02
2018-09-13T15:19:15.294Z,95047.05
2018-09-13T15:22:20.137Z,95048.36
2018-09-13T15:25:25.415Z,95055.55
2018-09-13T15:28:30.635Z,95056.94
2018-09-13T15:31:35.757Z,95059.64
2018-09-13T15:34:40.721Z,95056.03
2018-09-13T15:37:46.514Z,95056.88
2018-09-13T15:40:51.411Z,95054.52
2018-09-13T15:43:56.725Z,95052.41
2018-09-13T15:47:02.029Z,95052.28
2018-09-13T15:50:06.978Z,95051.03
2018-09-13T15:53:12.024Z,95050.48
2018-09-13T15:56:17.043Z,95051.26
2018-09-13T15:59:56.296Z,95060.15
2018-09-13T16:03:01.115Z,95063.58
2018-09-13T16:06:05.777Z,95063.94
2018-09-13T16:09:11.225Z,95066.92
2018-09-13T16:12:17.566Z,95074.39
2018-09-13T16:15:22.311Z,95064.20
2018-09-13T16:18:26.807Z,95060.48
2018-09-13T16:21:31.715Z,95055.78
2018-09-13T16:24:36.252Z,95064.23
2018-09-13T16:27:40.903Z,95061.48
2018-09-13T16:30:45.710Z,95060.40
2018-09-13T16:33:51.534Z,95065.00
2018-09-13T16:37:05.871Z,95067.17
2018-09-13T16:41:14.373Z,95076.50
2018-09-13T16:44:24.105Z,95071.70
2018-09-13T16:47:34.017Z,95071.73
2018-09-13T16:50:38.342Z,95069.41
2018-09-13T16:53:42.789Z,95066.92
2018-09-13T16:56:47.241Z,95059.45
2018-09-13T16:59:51.690Z,95060.41
2018-09-13T17:02:57.917Z,95065.25
2018-09-13T17:06:02.378Z,95064.66
2018-09-13T17:09:09.655Z,95058.33
2018-09-13T17:12:14.121Z,95060.66
2018-09-13T17:15:18.544Z,95058.89
2018-09-13T17:18:22.937Z,95048.32
2018-09-13T17:21:27.465Z,95037.72
2018-09-13T17:24:31.922Z,95037.74
2018-09-13T17:27:36.747Z,95040.23
2018-09-13T17:30:45.900Z,95051.19
2018-09-13T17:33:50.549Z,95059.88
2018-09-13T17:36:55.698Z,95053.53
2018-09-13T17:40:00.325Z,95065.28
2018-09-13T17:43:04.987Z,95067.20
2018-09-13T17:46:09.673Z,95064.88
2018-09-13T17:49:15.258Z,95064.30
2018-09-13T17:52:20.257Z,95061.20
2018-09-13T17:55:24.705Z,95053.50
2018-09-13T17:58:29.322Z,95059.47
2018-09-13T18:01:33.872Z,95064.66
2018-09-13T18:04:38.444Z,95075.82
2018-09-13T18:07:43.124Z,95084.69
2018-09-13T18:10:47.628Z,95088.33
2018-09-13T18:13:52.181Z,95081.38
2018-09-13T18:16:57.704Z,95091.02
2018-09-13T18:20:02.626Z,95107.02
2018-09-13T18:23:07.064Z,95122.21
2018-09-13T18:26:11.570Z,95134.87
2018-09-13T18:29:17.498Z,95148.23
2018-09-13T18:32:22.510Z,95145.73
2018-09-13T18:35:28.038Z,95148.80
2018-09-13T18:38:33.139Z,95153.25
2018-09-13T18:41:38.986Z,95164.76
2018-09-13T18:44:43.849Z,95168.02
2018-09-13T18:47:49.704Z,95176.13
2018-09-13T18:50:55.642Z,95170.95
2018-09-13T18:54:00.573Z,95175.90
2018-09-13T18:57:06.002Z,95179.91
2018-09-13T19:00:11.153Z,95182.80
2018-09-13T19:03:15.855Z,95181.05
2018-09-13T19:06:21.093Z,95181.55
2018-09-13T19:09:26.301Z,95176.41
2018-09-13T19:12:31.337Z,95178.73
2018-09-13T19:15:37.264Z,95181.47
2018-09-13T19:18:42.653Z,95185.50
2018-09-13T19:21:48.487Z,95180.45
2018-09-13T19:24:54.869Z,95182.28
2018-09-13T19:28:00.029Z,95182.08
2018-09-13T19:31:05.491Z,95194.88
2018-09-13T19:34:27.194Z,95197.08
2018-09-13T19:37:32.211Z,95195.56
2018-09-13T19:40:37.503Z,95200.63
2018-09-13T19:43:43.243Z,95195.81
2018-09-13T19:46:47.677Z,95198.94
2018-09-13T19:49:52.591Z,95203.22
2018-09-13T19:52:57.423Z,95205.23
2018-09-13T19:56:02.684Z,95204.10
2018-09-13T19:59:08.366Z,95199.91
2018-09-13T20:02:14.181Z,95207.77
2018-09-13T20:05:18.952Z,95211.04
2018-09-13T20:08:23.743Z,95213.43
2018-09-13T20:11:28.526Z,95205.31
2018-09-13T20:14:33.068Z,95203.91
2018-09-13T20:17:37.762Z,95199.72
2018-09-13T20:20:42.564Z,95204.89
2018-09-13T20:23:47.321Z,95201.58
2018-09-13T20:26:51.983Z,95200.84
2018-09-13T20:29:56.933Z,95196.20
2018-09-13T20:33:02.527Z,95200.97
2018-09-13T20:36:07.922Z,95205.39
2018-09-13T20:39:12.976Z,95199.68
2018-09-13T20:42:17.667Z,95207.12
2018-09-13T20:45:23.091Z,95205.28
2018-09-13T20:48:28.426Z,95213.44
2018-09-13T20:51:33.627Z,95208.25
2018-09-13T20:54:38.455Z,95208.55
2018-09-13T20:57:43.841Z,95211.73
2018-09-13T21:00:52.084Z,95210.74
2018-09-13T21:03:56.792Z,95206.84
2018-09-13T21:07:01.798Z,95213.55
2018-09-13T21:10:06.908Z,95212.36
2018-09-13T21:13:11.794Z,95206.78
2018-09-13T21:16:17.133Z,95208.28
2018-09-13T21:19:21.952Z,95210.86
2018-09-13T21:22:26.505Z,95206.22
2018-09-13T21:25:30.916Z,95206.94
2018-09-13T21:28:35.368Z,95203.98
2018-09-13T21:31:58.168Z,95195.41
2018-09-13T21:35:03.838Z,95195.84
2018-09-13T21:38:08.963Z,95194.43
2018-09-13T21:41:13.718Z,95191.02
2018-09-13T21:44:18.440Z,95192.86
2018-09-13T21:47:23.320Z,95194.91
2018-09-13T21:50:28.001Z,95195.67
2018-09-13T21:53:32.613Z,95196.67
2018-09-13T21:56:37.685Z,95193.44
2018-09-13T21:59:42.434Z,95191.66
2018-09-13T22:02:47.117Z,95194.98
2018-09-13T22:05:52.248Z,95190.19
2018-09-13T22:08:56.883Z,95187.28
2018-09-13T22:12:02.018Z,95183.17
2018-09-13T22:15:06.859Z,95185.94
2018-09-13T22:18:11.341Z,95181.19
2018-09-13T22:21:16.137Z,95182.14
2018-09-13T22:24:20.767Z,95179.45
2018-09-13T22:27:25.636Z,95181.98
2018-09-13T22:30:30.252Z,95178.73
2018-09-13T22:33:34.873Z,95183.22
2018-09-13T22:36:39.693Z,95182.91
2018-09-13T22:39:44.192Z,95182.32
2018-09-13T22:42:48.636Z,95182.45
2018-09-13T22:45:53.101Z,95180.92
2018-09-13T22:48:58.391Z,95180.53
2018-09-13T22:52:02.588Z,95179.38
2018-09-13T22:55:07.130Z,95183.09
2018-09-13T22:58:11.614Z,95186.48
2018-09-13T23:01:16.213Z,95191.59
2018-09-13T23:04:20.566Z,95187.89
2018-09-13T23:07:25.080Z,95182.34
2018-09-13T23:10:30.270Z,95184.61
2018-09-13T23:13:34.635Z,95188.28
2018-09-13T23:16:39.018Z,95198.66
2018-09-13T23:19:43.605Z,95195.10
2018-09-13T23:22:48.305Z,95200.30
2018-09-13T23:25:52.756Z,95201.40
2018-09-13T23:28:58.798Z,95192.61
2018-09-13T23:32:03.273Z,95205.09
2018-09-13T23:35:07.690Z,95196.41
2018-09-13T23:38:12.127Z,95203.43
2018-09-13T23:41:16.586Z,95205.56
2018-09-13T23:44:21.165Z,95205.27
2018-09-13T23:47:25.921Z,95200.14
2018-09-13T23:50:30.528Z,95199.34
2018-09-13T23:53:34.906Z,95207.34
2018-09-13T23:56:40.004Z,95206.94
2018-09-13T23:59:44.426Z,95209.27
